Time;durP1;ratioP1;P1;durP2;ratioP2;P2;SDS_P1;SDS_P2;PMS_P1;PMS_P2;Temp;Humidity;BMP_temperature;BMP_pressure;BME280_temperature;BME280_humidity;BME280_pressure;Samples;Min_cycle;Max_cycle;Signal;HPM_P1;HPM_P2
2022/09/02 00:01:15;;;;;;;;;6.75;6.75;;;;;;;;5023179;28;8857;-77
2022/09/02 00:03:45;;;;;;;;;7.75;7.25;;;;;;;;5024662;28;8852;-77
2022/09/02 00:06:13;;;;;;;;;6.50;6.50;;;;;;;;5018989;28;8876;-76
2022/09/02 00:08:43;;;;;;;;;7.25;5.50;;;;;;;;5024059;28;9724;-76
2022/09/02 00:11:14;;;;;;;;;6.00;6.00;;;;;;;;5023735;28;8938;-76
2022/09/02 00:13:41;;;;;;;;;6.75;6.75;;;;;;;;5019411;28;8872;-76
2022/09/02 00:16:09;;;;;;;;;7.00;7.00;;;;;;;;5023310;28;9000;-78
2022/09/02 00:18:37;;;;;;;;;6.75;6.75;;;;;;;;5023824;28;8884;-77
2022/09/02 00:21:06;;;;;;;;;6.25;6.25;;;;;;;;5023566;28;9640;-77
2022/09/02 00:23:33;;;;;;;;;6.25;6.25;;;;;;;;5019890;28;8877;-76
2022/09/02 00:26:01;;;;;;;;;6.50;6.50;;;;;;;;5024029;28;8957;-76
2022/09/02 00:28:28;;;;;;;;;6.50;6.50;;;;;;;;5017742;28;8888;-77
2022/09/02 00:30:55;;;;;;;;;7.75;7.75;;;;;;;;5022578;28;8813;-76
2022/09/02 00:33:23;;;;;;;;;7.75;7.75;;;;;;;;5022606;28;8884;-76
2022/09/02 00:35:50;;;;;;;;;5.75;5.75;;;;;;;;5007014;28;8888;-76
2022/09/02 00:38:20;;;;;;;;;6.00;6.00;;;;;;;;5023966;28;8922;-76
2022/09/02 00:40:49;;;;;;;;;6.00;6.00;;;;;;;;5023046;28;8881;-76
2022/09/02 00:43:23;;;;;;;;;8.50;7.00;;;;;;;;5023738;28;8903;-77
2022/09/02 00:45:51;;;;;;;;;6.75;6.75;;;;;;;;5021201;28;8865;-76
2022/09/02 00:48:18;;;;;;;;;10.25;6.50;;;;;;;;5023954;28;8848;-76
2022/09/02 00:50:46;;;;;;;;;6.00;6.00;;;;;;;;5022334;28;8903;-76
2022/09/02 00:53:14;;;;;;;;;8.00;7.25;;;;;;;;5024011;28;8942;-76
2022/09/02 00:55:46;;;;;;;;;9.75;8.50;;;;;;;;5023020;28;8840;-75
2022/09/02 00:58:17;;;;;;;;;6.75;5.00;;;;;;;;5022162;28;8876;-76
2022/09/02 01:00:45;;;;;;;;;7.25;6.00;;;;;;;;5016952;28;9625;-77
2022/09/02 01:03:15;;;;;;;;;6.00;6.00;;;;;;;;5022234;28;8868;-76
2022/09/02 01:05:45;;;;;;;;;7.00;7.00;;;;;;;;5021684;28;8884;-76
2022/09/02 01:08:13;;;;;;;;;7.50;7.00;;;;;;;;5022617;28;8884;-76
2022/09/02 01:10:43;;;;;;;;;7.75;7.75;;;;;;;;5023025;28;8886;-76
2022/09/02 01:13:12;;;;;;;;;7.25;7.25;;;;;;;;5006908;28;8873;-77
2022/09/02 01:15:43;;;;;;;;;6.00;6.00;;;;;;;;5000897;28;8900;-77
2022/09/02 01:18:17;;;;;;;;;6.00;6.00;;;;;;;;5022909;28;8861;-77
2022/09/02 01:20:46;;;;;;;;;9.00;7.25;;;;;;;;5022613;28;9001;-77
2022/09/02 01:23:15;;;;;;;;;9.75;8.00;;;;;;;;5023531;28;8884;-76
2022/09/02 01:25:43;;;;;;;;;6.50;6.50;;;;;;;;5022494;28;8868;-76
2022/09/02 01:28:15;;;;;;;;;8.50;7.25;;;;;;;;5020965;28;8890;-77
2022/09/02 01:30:45;;;;;;;;;8.00;7.75;;;;;;;;5019278;28;8789;-76
2022/09/02 01:33:12;;;;;;;;;9.00;9.00;;;;;;;;5021566;28;8852;-77
2022/09/02 01:35:40;;;;;;;;;7.75;7.75;;;;;;;;5022401;28;8896;-76
2022/09/02 01:38:08;;;;;;;;;8.00;7.00;;;;;;;;5022152;28;9684;-78
2022/09/02 01:40:37;;;;;;;;;7.50;7.50;;;;;;;;5023054;28;8869;-77
2022/09/02 01:43:08;;;;;;;;;5.75;5.75;;;;;;;;5022106;28;9006;-77
2022/09/02 01:45:36;;;;;;;;;6.00;6.00;;;;;;;;5021914;28;8884;-76
2022/09/02 01:48:05;;;;;;;;;9.00;7.25;;;;;;;;5022712;28;8865;-76
2022/09/02 01:50:32;;;;;;;;;9.50;8.25;;;;;;;;5021258;28;8869;-76
2022/09/02 01:53:02;;;;;;;;;7.00;7.00;;;;;;;;5005078;28;8882;-77
2022/09/02 01:55:29;;;;;;;;;6.25;6.25;;;;;;;;5022170;28;8883;-77
2022/09/02 01:57:58;;;;;;;;;7.75;7.75;;;;;;;;5022123;28;9045;-77
2022/09/02 02:00:26;;;;;;;;;6.00;6.00;;;;;;;;5014442;28;8955;-77
2022/09/02 02:02:53;;;;;;;;;6.50;6.50;;;;;;;;5022830;28;8883;-78
2022/09/02 02:05:21;;;;;;;;;6.50;6.50;;;;;;;;5022792;28;9523;-76
2022/09/02 02:07:48;;;;;;;;;7.50;7.50;;;;;;;;5024957;28;8888;-77
2022/09/02 02:10:17;;;;;;;;;6.75;6.25;;;;;;;;5014292;28;8933;-76
2022/09/02 02:12:44;;;;;;;;;7.50;7.00;;;;;;;;5026148;28;8861;-76
2022/09/02 02:15:16;;;;;;;;;8.00;8.00;;;;;;;;5026550;28;8905;-77
2022/09/02 02:17:44;;;;;;;;;9.00;9.00;;;;;;;;5021885;28;9018;-76
2022/09/02 02:20:13;;;;;;;;;9.00;9.00;;;;;;;;5026203;28;8865;-77
2022/09/02 02:22:42;;;;;;;;;7.50;7.50;;;;;;;;5025861;28;9652;-77
2022/09/02 02:25:10;;;;;;;;;6.25;6.25;;;;;;;;5026035;28;8907;-78
2022/09/02 02:27:38;;;;;;;;;11.00;8.50;;;;;;;;5024361;28;8879;-77
2022/09/02 02:30:06;;;;;;;;;9.50;9.50;;;;;;;;5021039;28;8890;-77
2022/09/02 02:32:35;;;;;;;;;11.00;7.75;;;;;;;;5025164;28;8872;-76
2022/09/02 02:35:03;;;;;;;;;8.50;8.50;;;;;;;;5024948;28;8954;-77
2022/09/02 02:37:31;;;;;;;;;8.75;8.75;;;;;;;;5025744;28;8899;-76
2022/09/02 02:39:58;;;;;;;;;8.00;8.00;;;;;;;;5025828;28;8892;-76
2022/09/02 02:42:26;;;;;;;;;9.75;8.75;;;;;;;;5011969;28;8883;-77
2022/09/02 02:44:53;;;;;;;;;8.00;8.00;;;;;;;;5026567;28;8880;-76
2022/09/02 02:47:21;;;;;;;;;11.00;9.75;;;;;;;;5024776;28;9761;-77
2022/09/02 02:49:49;;;;;;;;;8.25;8.25;;;;;;;;5025500;28;8860;-77
2022/09/02 02:52:17;;;;;;;;;8.00;8.00;;;;;;;;5024449;28;8857;-77
2022/09/02 02:54:44;;;;;;;;;12.00;10.00;;;;;;;;5026442;28;8877;-76
2022/09/02 02:57:12;;;;;;;;;8.50;8.50;;;;;;;;5024836;28;8864;-76
2022/09/02 02:59:39;;;;;;;;;8.50;8.50;;;;;;;;5024887;28;8881;-77
2022/09/02 03:02:07;;;;;;;;;10.00;10.00;;;;;;;;5025322;28;8830;-77
2022/09/02 03:04:35;;;;;;;;;8.75;8.75;;;;;;;;5024383;28;8869;-77
2022/09/02 03:07:06;;;;;;;;;11.50;9.50;;;;;;;;5026030;28;8900;-75
2022/09/02 03:09:33;;;;;;;;;8.25;8.25;;;;;;;;5024012;28;8871;-76
2022/09/02 03:12:02;;;;;;;;;10.25;10.25;;;;;;;;5026171;28;8868;-76
2022/09/02 03:14:29;;;;;;;;;9.50;9.50;;;;;;;;5024714;28;10266;-76
2022/09/02 03:16:57;;;;;;;;;10.25;10.00;;;;;;;;5024965;28;8884;-78
2022/09/02 03:19:24;;;;;;;;;11.50;10.25;;;;;;;;5023985;28;8840;-78
2022/09/02 03:21:51;;;;;;;;;9.50;9.50;;;;;;;;5024298;28;8880;-77
2022/09/02 03:24:20;;;;;;;;;9.25;9.25;;;;;;;;5025836;28;8868;-77
2022/09/02 03:26:47;;;;;;;;;8.50;8.50;;;;;;;;5024017;28;8856;-77
2022/09/02 03:29:15;;;;;;;;;10.25;10.25;;;;;;;;5022948;28;8903;-77
2022/09/02 03:31:42;;;;;;;;;9.75;9.00;;;;;;;;5023917;28;8808;-78
2022/09/02 03:34:10;;;;;;;;;9.25;9.00;;;;;;;;5024460;28;8914;-76
2022/09/02 03:36:39;;;;;;;;;11.00;9.00;;;;;;;;5025273;28;8927;-77
2022/09/02 03:39:07;;;;;;;;;10.25;10.25;;;;;;;;5024609;28;8884;-77
2022/09/02 03:41:36;;;;;;;;;10.00;9.00;;;;;;;;5024883;28;8856;-77
2022/09/02 03:44:04;;;;;;;;;8.75;8.75;;;;;;;;5024095;28;8876;-77
2022/09/02 03:46:32;;;;;;;;;7.75;7.75;;;;;;;;5024752;28;9595;-76
2022/09/02 03:48:59;;;;;;;;;9.00;9.00;;;;;;;;5023712;28;8897;-77
2022/09/02 03:51:27;;;;;;;;;7.00;7.00;;;;;;;;5024530;28;8903;-77
2022/09/02 03:53:55;;;;;;;;;9.25;8.25;;;;;;;;5016773;28;8853;-77
2022/09/02 03:56:24;;;;;;;;;7.75;7.75;;;;;;;;5023778;28;8884;-77
2022/09/02 03:58:53;;;;;;;;;9.00;9.00;;;;;;;;5024940;28;8878;-76
2022/09/02 04:01:23;;;;;;;;;8.75;8.75;;;;;;;;4997131;28;8813;-78
2022/09/02 04:03:51;;;;;;;;;8.25;8.25;;;;;;;;5022414;28;8871;-76
2022/09/02 04:06:20;;;;;;;;;8.00;8.00;;;;;;;;5023466;28;8923;-76
2022/09/02 04:08:49;;;;;;;;;9.50;9.50;;;;;;;;5024486;28;8926;-76
2022/09/02 04:11:19;;;;;;;;;11.00;9.50;;;;;;;;5023150;28;8872;-76
2022/09/02 04:13:47;;;;;;;;;9.25;9.25;;;;;;;;5023545;28;8861;-75
2022/09/02 04:16:18;;;;;;;;;8.00;7.00;;;;;;;;5006746;28;8907;-76
2022/09/02 04:18:45;;;;;;;;;8.50;8.50;;;;;;;;5023271;28;8889;-77
2022/09/02 04:21:12;;;;;;;;;8.00;8.00;;;;;;;;5023803;28;8849;-77
2022/09/02 04:23:40;;;;;;;;;10.25;10.25;;;;;;;;5022957;28;8869;-76
2022/09/02 04:26:09;;;;;;;;;6.50;6.50;;;;;;;;5024782;28;8879;-76
2022/09/02 04:28:36;;;;;;;;;9.75;9.75;;;;;;;;5023633;28;8883;-76
2022/09/02 04:31:05;;;;;;;;;8.00;8.00;;;;;;;;5021711;28;8821;-76
2022/09/02 04:33:34;;;;;;;;;10.00;9.00;;;;;;;;5007462;28;8911;-76
2022/09/02 04:36:06;;;;;;;;;8.00;8.00;;;;;;;;5013499;28;8900;-74
2022/09/02 04:38:33;;;;;;;;;6.50;6.50;;;;;;;;5023196;28;8883;-75
2022/09/02 04:41:01;;;;;;;;;9.00;9.00;;;;;;;;5022769;28;8899;-76
2022/09/02 04:43:28;;;;;;;;;10.50;9.25;;;;;;;;5023278;28;8873;-78
2022/09/02 04:45:56;;;;;;;;;9.25;9.25;;;;;;;;5021715;28;8863;-77
2022/09/02 04:48:23;;;;;;;;;8.00;8.00;;;;;;;;5019538;28;8876;-77
2022/09/02 04:50:52;;;;;;;;;8.00;8.00;;;;;;;;5024062;28;8910;-77
2022/09/02 04:53:19;;;;;;;;;9.75;9.75;;;;;;;;5021714;28;8879;-77
2022/09/02 04:55:47;;;;;;;;;9.00;9.00;;;;;;;;5024111;28;8932;-74
2022/09/02 04:58:15;;;;;;;;;7.50;7.50;;;;;;;;5019915;28;8956;-76
2022/09/02 05:00:42;;;;;;;;;9.50;9.50;;;;;;;;5021148;28;8837;-76
2022/09/02 05:03:11;;;;;;;;;8.50;8.50;;;;;;;;5021246;28;8875;-75
2022/09/02 05:05:39;;;;;;;;;8.00;8.00;;;;;;;;5022263;28;8888;-75
2022/09/02 05:08:08;;;;;;;;;6.25;6.25;;;;;;;;5016718;28;8868;-75
2022/09/02 05:10:36;;;;;;;;;10.75;10.00;;;;;;;;5021453;28;8919;-77
2022/09/02 05:13:04;;;;;;;;;10.75;9.00;;;;;;;;5023817;28;8853;-75
2022/09/02 05:15:32;;;;;;;;;9.00;7.75;;;;;;;;5023195;28;9627;-75
2022/09/02 05:17:59;;;;;;;;;10.00;10.00;;;;;;;;5023078;28;8877;-73
2022/09/02 05:20:27;;;;;;;;;10.00;10.00;;;;;;;;5020798;28;8892;-74
2022/09/02 05:22:54;;;;;;;;;10.25;10.25;;;;;;;;5022652;28;8926;-74
2022/09/02 05:25:24;;;;;;;;;8.50;8.50;;;;;;;;5022086;28;8877;-75
2022/09/02 05:27:51;;;;;;;;;7.25;7.25;;;;;;;;5020461;28;8930;-73
2022/09/02 05:30:18;;;;;;;;;9.50;9.50;;;;;;;;5024437;28;8892;-73
2022/09/02 05:32:46;;;;;;;;;11.25;9.25;;;;;;;;5017079;28;8883;-73
2022/09/02 05:35:13;;;;;;;;;10.50;10.50;;;;;;;;5022823;28;8896;-73
2022/09/02 05:37:40;;;;;;;;;8.00;8.00;;;;;;;;5017701;28;8898;-73
2022/09/02 05:40:11;;;;;;;;;10.25;8.75;;;;;;;;5021112;28;8875;-73
2022/09/02 05:42:40;;;;;;;;;12.00;10.00;;;;;;;;5019936;28;8861;-75
2022/09/02 05:45:08;;;;;;;;;10.25;10.25;;;;;;;;5002320;28;8882;-71
2022/09/02 05:47:36;;;;;;;;;9.25;9.25;;;;;;;;5012559;28;9630;-75
2022/09/02 05:50:04;;;;;;;;;12.75;12.75;;;;;;;;5020049;28;8873;-72
2022/09/02 05:52:33;;;;;;;;;10.75;10.75;;;;;;;;5021399;28;9002;-72
2022/09/02 05:55:02;;;;;;;;;10.50;10.50;;;;;;;;5021157;28;8884;-73
2022/09/02 05:57:30;;;;;;;;;12.00;12.00;;;;;;;;5018995;28;8864;-78
2022/09/02 05:59:59;;;;;;;;;10.25;9.75;;;;;;;;5022263;28;8869;-75
2022/09/02 06:02:27;;;;;;;;;14.50;13.50;;;;;;;;5004300;28;8837;-72
2022/09/02 06:04:55;;;;;;;;;17.25;14.75;;;;;;;;5022781;28;9608;-73
2022/09/02 06:07:24;;;;;;;;;19.50;16.25;;;;;;;;5019832;28;8898;-81
2022/09/02 06:09:52;;;;;;;;;17.25;16.00;;;;;;;;5031137;28;8874;-75
2022/09/02 06:12:20;;;;;;;;;14.75;14.75;;;;;;;;5010752;28;8983;-78
2022/09/02 06:14:49;;;;;;;;;18.00;15.75;;;;;;;;5021705;28;8875;-77
2022/09/02 06:17:17;;;;;;;;;17.25;15.50;;;;;;;;5021385;28;8871;-77
2022/09/02 06:19:46;;;;;;;;;12.00;12.00;;;;;;;;5021328;28;8868;-77
2022/09/02 06:22:13;;;;;;;;;14.25;14.25;;;;;;;;5021458;28;8852;-77
2022/09/02 06:24:40;;;;;;;;;12.00;12.00;;;;;;;;5019351;28;9067;-77
2022/09/02 06:27:07;;;;;;;;;13.00;13.00;;;;;;;;5022611;28;8870;-77
2022/09/02 06:29:36;;;;;;;;;9.50;9.00;;;;;;;;5017533;28;8869;-78
2022/09/02 06:32:03;;;;;;;;;15.75;13.00;;;;;;;;5020475;28;9784;-79
2022/09/02 06:34:34;;;;;;;;;12.50;8.75;;;;;;;;5022474;28;9532;-77
2022/09/02 06:37:02;;;;;;;;;11.00;11.00;;;;;;;;5022231;28;8896;-80
2022/09/02 06:39:29;;;;;;;;;9.25;9.25;;;;;;;;5005451;28;8848;-77
2022/09/02 06:41:57;;;;;;;;;10.25;10.25;;;;;;;;5004570;28;8939;-79
2022/09/02 06:44:25;;;;;;;;;11.75;9.75;;;;;;;;5023177;28;8979;-78
2022/09/02 06:46:55;;;;;;;;;7.75;7.75;;;;;;;;5021095;28;8887;-77
2022/09/02 06:49:23;;;;;;;;;9.00;7.50;;;;;;;;5022963;28;8889;-76
2022/09/02 06:51:54;;;;;;;;;7.00;7.00;;;;;;;;5021582;28;8864;-80
2022/09/02 06:54:22;;;;;;;;;9.25;8.00;;;;;;;;5022921;28;8868;-78
2022/09/02 06:56:51;;;;;;;;;7.50;6.75;;;;;;;;5025449;28;8856;-79
2022/09/02 06:59:18;;;;;;;;;5.75;5.75;;;;;;;;5026123;28;8986;-78
2022/09/02 07:01:46;;;;;;;;;10.00;7.00;;;;;;;;5026115;28;8844;-78
2022/09/02 07:06:59;;;;;;;;;8.00;8.00;;;;;;;;5026466;28;8857;-78
2022/09/02 07:09:29;;;;;;;;;8.75;8.00;;;;;;;;5021999;28;8879;-75
2022/09/02 07:11:58;;;;;;;;;8.50;8.50;;;;;;;;5026044;28;8872;-76
2022/09/02 07:14:27;;;;;;;;;10.00;10.00;;;;;;;;5026026;28;8891;-76
2022/09/02 07:16:56;;;;;;;;;7.75;7.25;;;;;;;;5024754;28;8895;-76
2022/09/02 07:19:25;;;;;;;;;7.00;7.00;;;;;;;;5024419;28;9506;-78
2022/09/02 07:21:52;;;;;;;;;7.75;7.75;;;;;;;;5025554;28;8907;-76
2022/09/02 07:24:22;;;;;;;;;8.25;7.75;;;;;;;;5028804;28;8864;-78
2022/09/02 07:26:49;;;;;;;;;6.00;6.00;;;;;;;;5017428;28;8874;-78
2022/09/02 07:29:17;;;;;;;;;11.50;10.00;;;;;;;;5024595;28;8871;-77
2022/09/02 07:31:47;;;;;;;;;7.50;7.00;;;;;;;;5028518;28;8797;-77
2022/09/02 07:34:14;;;;;;;;;7.25;7.00;;;;;;;;5023518;28;8896;-77
2022/09/02 07:36:44;;;;;;;;;6.25;6.25;;;;;;;;5025436;28;8874;-76
2022/09/02 07:39:13;;;;;;;;;8.50;8.50;;;;;;;;5024269;28;8899;-77
2022/09/02 07:41:43;;;;;;;;;10.75;10.75;;;;;;;;5024549;28;8884;-77
2022/09/02 07:44:11;;;;;;;;;11.25;9.50;;;;;;;;5020863;28;9751;-74
2022/09/02 07:46:39;;;;;;;;;9.25;9.00;;;;;;;;5018947;28;8864;-84
2022/09/02 07:49:09;;;;;;;;;10.75;10.75;;;;;;;;5016725;28;8856;-78
2022/09/02 07:51:38;;;;;;;;;10.25;9.00;;;;;;;;5023769;28;9803;-78
2022/09/02 07:54:06;;;;;;;;;9.00;9.00;;;;;;;;5023884;28;8856;-78
2022/09/02 07:56:33;;;;;;;;;8.00;8.00;;;;;;;;5023201;28;8971;-78
2022/09/02 07:59:03;;;;;;;;;13.50;9.75;;;;;;;;5025633;28;8888;-81
2022/09/02 08:01:30;;;;;;;;;11.25;11.25;;;;;;;;4998869;28;9684;-79
2022/09/02 08:03:58;;;;;;;;;12.00;10.00;;;;;;;;5024578;28;8995;-79
2022/09/02 08:06:27;;;;;;;;;9.50;9.50;;;;;;;;5007681;28;8861;-80
2022/09/02 08:08:55;;;;;;;;;11.00;11.00;;;;;;;;5025411;28;8876;-81
2022/09/02 08:11:23;;;;;;;;;11.00;11.00;;;;;;;;5008764;28;8962;-81
2022/09/02 08:13:51;;;;;;;;;12.50;11.00;;;;;;;;5025179;28;8975;-82
2022/09/02 08:16:20;;;;;;;;;12.00;10.75;;;;;;;;5024831;28;8880;-78
2022/09/02 08:18:47;;;;;;;;;11.50;11.50;;;;;;;;5002743;28;8857;-76
2022/09/02 08:21:15;;;;;;;;;12.75;12.00;;;;;;;;5025313;28;9032;-78
2022/09/02 08:23:42;;;;;;;;;11.75;11.75;;;;;;;;5025584;28;8868;-77
2022/09/02 08:26:10;;;;;;;;;11.00;11.00;;;;;;;;5025145;28;8994;-79
2022/09/02 08:28:38;;;;;;;;;11.00;11.00;;;;;;;;5026490;28;8872;-80
2022/09/02 08:31:06;;;;;;;;;8.75;8.75;;;;;;;;5023859;28;8837;-80
2022/09/02 08:33:35;;;;;;;;;12.25;9.75;;;;;;;;5001328;28;8911;-79
2022/09/02 08:36:04;;;;;;;;;8.00;8.00;;;;;;;;4986599;28;8869;-78
2022/09/02 08:38:31;;;;;;;;;11.75;11.75;;;;;;;;5023667;28;8918;-80
2022/09/02 08:41:00;;;;;;;;;10.00;10.00;;;;;;;;5022879;28;8878;-82
2022/09/02 08:43:31;;;;;;;;;8.75;8.75;;;;;;;;5024542;28;8884;-82
2022/09/02 08:46:04;;;;;;;;;11.25;11.00;;;;;;;;5006973;28;8905;-77
2022/09/02 08:48:38;;;;;;;;;9.40;9.40;;;;;;;;5022569;28;8888;-87
2022/09/02 08:51:08;;;;;;;;;10.00;10.00;;;;;;;;5021979;28;8910;-75
2022/09/02 08:53:40;;;;;;;;;9.00;9.00;;;;;;;;5019032;28;8874;-75
2022/09/02 08:56:12;;;;;;;;;9.60;7.20;;;;;;;;5009340;28;9019;-77
2022/09/02 08:58:41;;;;;;;;;11.60;10.40;;;;;;;;5006431;28;8856;-79
2022/09/02 09:01:17;;;;;;;;;10.60;10.00;;;;;;;;5026300;28;8841;-78
2022/09/02 09:04:01;;;;;;;;;8.80;7.00;;;;;;;;5018025;28;8879;-77
2022/09/02 09:06:44;;;;;;;;;11.00;9.40;;;;;;;;5021654;28;9692;-78
2022/09/02 09:09:18;;;;;;;;;8.80;8.80;;;;;;;;5017950;28;8892;-80
2022/09/02 09:11:52;;;;;;;;;7.60;7.60;;;;;;;;5023886;28;8880;-78
2022/09/02 09:14:28;;;;;;;;;10.20;10.20;;;;;;;;5022389;28;8872;-78
2022/09/02 09:16:59;;;;;;;;;10.00;10.00;;;;;;;;5010602;28;8873;-77
2022/09/02 09:19:34;;;;;;;;;7.40;7.40;;;;;;;;5022848;28;8953;-78
2022/09/02 09:22:02;;;;;;;;;8.80;8.80;;;;;;;;5023940;28;8888;-79
2022/09/02 09:24:36;;;;;;;;;8.00;8.00;;;;;;;;5024172;28;8852;-79
2022/09/02 09:27:07;;;;;;;;;7.80;7.80;;;;;;;;5021934;28;8872;-77
2022/09/02 09:29:35;;;;;;;;;8.00;8.00;;;;;;;;5024362;28;8874;-77
2022/09/02 09:32:07;;;;;;;;;11.00;9.60;;;;;;;;5022643;28;8859;-76
2022/09/02 09:35:03;;;;;;;;;8.80;8.80;;;;;;;;5019491;28;8883;-78
2022/09/02 09:37:34;;;;;;;;;9.80;9.80;;;;;;;;5021067;28;8899;-81
2022/09/02 09:40:02;;;;;;;;;9.20;9.20;;;;;;;;5023168;28;8895;-77
2022/09/02 09:42:34;;;;;;;;;9.20;9.20;;;;;;;;5018092;28;8913;-78
2022/09/02 09:45:16;;;;;;;;;9.00;8.20;;;;;;;;5020370;28;8902;-77
2022/09/02 09:47:43;;;;;;;;;9.40;9.40;;;;;;;;5022727;28;8867;-80
2022/09/02 09:50:16;;;;;;;;;9.00;9.00;;;;;;;;5021705;28;8848;-77
2022/09/02 09:52:44;;;;;;;;;11.00;11.00;;;;;;;;5019681;28;8900;-78
2022/09/02 09:55:18;;;;;;;;;7.20;7.20;;;;;;;;5022889;28;8852;-79
2022/09/02 09:57:47;;;;;;;;;8.60;8.60;;;;;;;;5021881;28;8895;-79
2022/09/02 10:00:22;;;;;;;;;10.00;10.00;;;;;;;;5014208;28;8896;-79
2022/09/02 10:02:52;;;;;;;;;8.80;8.80;;;;;;;;5021174;28;8958;-82
2022/09/02 10:05:31;;;;;;;;;8.40;8.40;;;;;;;;5023251;28;8904;-82
2022/09/02 10:08:01;;;;;;;;;8.60;8.60;;;;;;;;5021966;28;8864;-81
2022/09/02 10:10:32;;;;;;;;;11.00;9.00;;;;;;;;5004821;28;8961;-80
2022/09/02 10:13:15;;;;;;;;;9.40;9.40;;;;;;;;5022546;28;8994;-79
2022/09/02 10:15:48;;;;;;;;;9.00;9.00;;;;;;;;5013749;28;8864;-80
2022/09/02 10:18:23;;;;;;;;;10.80;10.00;;;;;;;;5021624;28;9646;-77
2022/09/02 10:21:10;;;;;;;;;9.20;9.20;;;;;;;;5021961;28;9695;-80
2022/09/02 10:23:44;;;;;;;;;8.40;8.40;;;;;;;;5017202;28;8876;-82
2022/09/02 10:26:18;;;;;;;;;10.40;9.60;;;;;;;;5021120;28;8899;-79
2022/09/02 10:29:27;;;;;;;;;11.20;10.00;;;;;;;;5018358;28;8876;-80
2022/09/02 10:32:06;;;;;;;;;12.80;11.40;;;;;;;;5019487;28;8813;-77
2022/09/02 10:34:40;;;;;;;;;13.60;13.60;;;;;;;;5022933;28;8864;-73
2022/09/02 10:37:24;;;;;;;;;12.60;12.60;;;;;;;;5006233;28;8941;-80
2022/09/02 10:40:10;;;;;;;;;10.60;10.60;;;;;;;;5024060;28;8894;-75
2022/09/02 10:42:47;;;;;;;;;14.80;13.00;;;;;;;;5013450;28;9001;-76
2022/09/02 10:45:24;;;;;;;;;15.80;12.60;;;;;;;;5026148;28;8860;-74
2022/09/02 10:47:58;;;;;;;;;12.20;12.20;;;;;;;;5026198;28;8930;-75
2022/09/02 10:50:35;;;;;;;;;16.80;16.00;;;;;;;;5024527;28;8876;-78
2022/09/02 10:53:31;;;;;;;;;15.20;15.20;;;;;;;;5025200;28;8902;-76
2022/09/02 10:56:00;;;;;;;;;11.60;11.60;;;;;;;;5018586;28;8864;-76
2022/09/02 10:58:41;;;;;;;;;14.20;11.20;;;;;;;;5023894;28;9006;-75
2022/09/02 11:01:10;;;;;;;;;14.60;14.60;;;;;;;;5016274;28;8935;-74
2022/09/02 11:03:41;;;;;;;;;11.20;11.20;;;;;;;;5025173;28;8899;-75
2022/09/02 11:06:13;;;;;;;;;12.80;12.80;;;;;;;;5009220;28;8895;-75
2022/09/02 11:08:45;;;;;;;;;14.00;14.00;;;;;;;;5020392;28;8869;-75
2022/09/02 11:11:20;;;;;;;;;13.80;13.80;;;;;;;;5024241;28;8906;-76
2022/09/02 11:13:55;;;;;;;;;15.60;13.60;;;;;;;;5025986;28;8865;-77
2022/09/02 11:16:25;;;;;;;;;14.60;14.60;;;;;;;;5021720;28;8915;-80
2022/09/02 11:18:59;;;;;;;;;11.20;11.20;;;;;;;;5027970;28;8983;-76
2022/09/02 11:21:34;;;;;;;;;12.80;12.80;;;;;;;;5022797;28;8894;-76
2022/09/02 11:24:11;;;;;;;;;14.40;13.40;;;;;;;;5025250;28;8950;-76
2022/09/02 11:26:41;;;;;;;;;10.60;10.60;;;;;;;;5024101;28;8902;-77
2022/09/02 11:29:14;;;;;;;;;11.60;11.60;;;;;;;;5023392;28;9655;-79
2022/09/02 11:31:44;;;;;;;;;11.20;11.20;;;;;;;;5021568;28;8922;-77
2022/09/02 11:34:24;;;;;;;;;12.20;11.60;;;;;;;;5025678;28;8886;-77
2022/09/02 11:36:52;;;;;;;;;6.20;6.20;;;;;;;;5023876;28;8897;-76
2022/09/02 11:39:27;;;;;;;;;12.00;12.00;;;;;;;;5023683;28;8890;-77
2022/09/02 11:42:07;;;;;;;;;14.20;14.00;;;;;;;;5022157;28;8884;-76
2022/09/02 11:45:13;;;;;;;;;12.00;12.00;;;;;;;;5025061;28;8888;-78
2022/09/02 11:48:03;;;;;;;;;12.60;11.20;;;;;;;;5021388;28;9002;-78
2022/09/02 11:50:47;;;;;;;;;9.00;7.40;;;;;;;;5019785;28;8915;-76
2022/09/02 11:53:20;;;;;;;;;12.40;11.40;;;;;;;;5024033;28;8861;-76
2022/09/02 11:55:55;;;;;;;;;11.00;9.00;;;;;;;;5021829;28;8906;-76
2022/09/02 11:58:37;;;;;;;;;11.60;11.60;;;;;;;;5019661;28;8872;-76
2022/09/02 12:01:18;;;;;;;;;10.60;10.60;;;;;;;;5020933;28;8833;-76
2022/09/02 12:03:47;;;;;;;;;11.80;11.60;;;;;;;;5017811;28;8862;-75
2022/09/02 12:06:17;;;;;;;;;12.80;12.80;;;;;;;;5024536;28;8873;-76
2022/09/02 12:09:02;;;;;;;;;11.00;11.00;;;;;;;;5023004;28;8879;-77
2022/09/02 12:11:42;;;;;;;;;13.00;13.00;;;;;;;;5024980;28;8877;-76
2022/09/02 12:14:12;;;;;;;;;10.80;10.80;;;;;;;;5023329;28;8892;-76
2022/09/02 12:16:45;;;;;;;;;9.20;8.20;;;;;;;;5022434;28;8876;-77
2022/09/02 12:19:27;;;;;;;;;13.60;13.20;;;;;;;;5025955;28;8883;-76
2022/09/02 12:22:41;;;;;;;;;10.40;10.40;;;;;;;;5022149;28;8869;-78
2022/09/02 12:25:37;;;;;;;;;10.40;10.40;;;;;;;;5006111;28;8908;-77
2022/09/02 12:28:19;;;;;;;;;10.00;10.00;;;;;;;;5009829;28;8860;-76
2022/09/02 12:31:11;;;;;;;;;9.60;9.60;;;;;;;;5023151;28;8812;-76
2022/09/02 12:33:40;;;;;;;;;12.40;12.40;;;;;;;;5021564;28;8922;-77
2022/09/02 12:36:08;;;;;;;;;10.80;10.80;;;;;;;;5022852;28;8931;-78
2022/09/02 12:38:38;;;;;;;;;9.60;8.80;;;;;;;;5014954;28;8856;-76
2022/09/02 12:41:20;;;;;;;;;11.00;9.60;;;;;;;;5021027;28;9623;-75
2022/09/02 12:43:57;;;;;;;;;10.60;10.60;;;;;;;;5022933;28;9022;-75
2022/09/02 12:46:35;;;;;;;;;11.80;9.80;;;;;;;;5016602;28;8858;-75
2022/09/02 12:49:10;;;;;;;;;9.00;9.00;;;;;;;;5020392;28;8845;-76
2022/09/02 12:51:55;;;;;;;;;8.40;8.40;;;;;;;;5017449;28;8879;-76
2022/09/02 12:54:28;;;;;;;;;10.80;10.80;;;;;;;;5023283;28;8895;-76
2022/09/02 12:56:55;;;;;;;;;7.80;7.60;;;;;;;;5022663;28;8865;-75
2022/09/02 12:59:29;;;;;;;;;11.00;11.00;;;;;;;;5023915;28;8872;-75
2022/09/02 13:02:15;;;;;;;;;9.60;8.40;;;;;;;;5020743;28;8805;-75
2022/09/02 13:04:50;;;;;;;;;10.00;10.00;;;;;;;;5020628;28;9000;-74
2022/09/02 13:07:57;;;;;;;;;7.40;7.40;;;;;;;;5022929;28;8876;-74
2022/09/02 13:11:12;;;;;;;;;10.80;10.80;;;;;;;;5013477;28;8865;-75
2022/09/02 13:13:56;;;;;;;;;12.20;12.20;;;;;;;;5021271;28;8884;-74
2022/09/02 13:16:33;;;;;;;;;11.20;11.20;;;;;;;;5023394;28;8872;-75
2022/09/02 13:19:33;;;;;;;;;10.20;9.80;;;;;;;;5022471;28;8867;-76
2022/09/02 13:22:33;;;;;;;;;8.00;8.00;;;;;;;;5003235;28;9650;-74
2022/09/02 13:25:41;;;;;;;;;8.00;8.00;;;;;;;;5021275;28;8888;-73
2022/09/02 13:28:45;;;;;;;;;12.40;10.40;;;;;;;;5015208;28;8869;-74
2022/09/02 13:31:20;;;;;;;;;11.60;11.60;;;;;;;;5025554;28;8833;-74
2022/09/02 13:33:49;;;;;;;;;9.60;8.80;;;;;;;;5023436;28;8868;-75
2022/09/02 13:36:27;;;;;;;;;11.20;11.20;;;;;;;;5022335;28;8922;-75
2022/09/02 13:38:54;;;;;;;;;13.40;10.80;;;;;;;;5023016;28;8888;-75
2022/09/02 13:41:29;;;;;;;;;10.40;10.40;;;;;;;;5022249;28;9003;-74
2022/09/02 13:44:07;;;;;;;;;8.20;7.60;;;;;;;;5021951;28;8983;-74
2022/09/02 13:46:43;;;;;;;;;10.80;10.80;;;;;;;;5023158;28;8888;-75
2022/09/02 13:49:19;;;;;;;;;9.60;9.60;;;;;;;;5021170;28;8860;-75
2022/09/02 13:51:47;;;;;;;;;13.00;12.40;;;;;;;;5023058;28;8864;-74
2022/09/02 13:54:15;;;;;;;;;11.00;11.00;;;;;;;;5023507;28;8865;-75
2022/09/02 13:56:42;;;;;;;;;13.40;12.00;;;;;;;;4993713;28;8881;-74
2022/09/02 13:59:10;;;;;;;;;9.00;9.00;;;;;;;;5022603;28;8942;-74
2022/09/02 14:01:39;;;;;;;;;11.20;10.60;;;;;;;;5003980;28;8852;-74
2022/09/02 14:04:09;;;;;;;;;10.20;10.20;;;;;;;;5027279;28;8891;-75
2022/09/02 14:06:41;;;;;;;;;11.60;11.60;;;;;;;;5025824;28;9103;-74
2022/09/02 14:09:22;;;;;;;;;11.60;11.60;;;;;;;;5027402;28;8900;-74
2022/09/02 14:11:50;;;;;;;;;11.20;11.20;;;;;;;;5025767;28;8879;-74
2022/09/02 14:14:19;;;;;;;;;12.80;12.80;;;;;;;;5024946;28;8896;-75
2022/09/02 14:16:47;;;;;;;;;11.60;11.60;;;;;;;;5027235;28;9011;-75
2022/09/02 14:19:24;;;;;;;;;14.40;13.80;;;;;;;;5010336;28;8880;-75
2022/09/02 14:21:54;;;;;;;;;12.80;12.80;;;;;;;;5017780;28;8961;-75
2022/09/02 14:24:24;;;;;;;;;13.00;12.40;;;;;;;;5026249;28;8864;-74
2022/09/02 14:26:53;;;;;;;;;11.00;9.20;;;;;;;;5026905;28;8970;-75
2022/09/02 14:29:21;;;;;;;;;10.80;10.80;;;;;;;;5027072;28;8892;-74
2022/09/02 14:32:06;;;;;;;;;12.00;12.00;;;;;;;;5017560;28;8787;-74
2022/09/02 14:34:36;;;;;;;;;11.40;11.40;;;;;;;;5023724;28;8907;-74
2022/09/02 14:37:19;;;;;;;;;10.80;10.80;;;;;;;;5025205;28;8861;-74
2022/09/02 14:40:07;;;;;;;;;10.00;10.00;;;;;;;;5027041;28;9011;-74
2022/09/02 14:42:34;;;;;;;;;10.60;10.60;;;;;;;;5015387;28;8866;-75
2022/09/02 14:45:04;;;;;;;;;11.80;9.80;;;;;;;;5025416;28;8918;-75
2022/09/02 14:47:31;;;;;;;;;11.40;10.80;;;;;;;;5026415;28;9672;-74
2022/09/02 14:49:59;;;;;;;;;8.20;8.20;;;;;;;;5023796;28;8869;-74
2022/09/02 14:52:32;;;;;;;;;11.80;11.80;;;;;;;;5026757;28;9022;-74
2022/09/02 14:54:59;;;;;;;;;12.80;11.20;;;;;;;;5025757;28;8889;-74
2022/09/02 14:57:28;;;;;;;;;12.40;10.20;;;;;;;;5026163;28;8883;-74
2022/09/02 14:59:56;;;;;;;;;12.80;12.80;;;;;;;;5026439;28;8967;-74
2022/09/02 15:02:28;;;;;;;;;12.60;11.40;;;;;;;;5024437;28;8813;-75
2022/09/02 15:04:57;;;;;;;;;11.60;10.60;;;;;;;;5025669;28;8902;-74
2022/09/02 15:07:27;;;;;;;;;10.00;9.20;;;;;;;;5024969;28;8867;-75
2022/09/02 15:09:54;;;;;;;;;11.60;11.60;;;;;;;;5026400;28;8884;-74
2022/09/02 15:12:25;;;;;;;;;10.80;10.80;;;;;;;;5022118;28;8840;-74
2022/09/02 15:14:53;;;;;;;;;9.80;9.80;;;;;;;;5023998;28;8973;-74